sensor_id;sensor_type;location;lat;lon;timestamp;P1;durP1;ratioP1;P2;durP2;ratioP2
9142;SDS011;54072;47.410;8.446;2023-03-13T00:01:34;1.50;;;1.40;;
9142;SDS011;54072;47.410;8.446;2023-03-13T00:04:02;1.70;;;1.37;;
9142;SDS011;54072;47.410;8.446;2023-03-13T00:06:32;1.63;;;1.50;;
9142;SDS011;54072;47.410;8.446;2023-03-13T00:09:02;1.97;;;1.77;;
9142;SDS011;54072;47.410;8.446;2023-03-13T00:11:30;3.67;;;2.63;;
9142;SDS011;54072;47.410;8.446;2023-03-13T00:13:59;2.37;;;1.70;;
9142;SDS011;54072;47.410;8.446;2023-03-13T00:16:28;2.40;;;1.80;;
9142;SDS011;54072;47.410;8.446;2023-03-13T00:18:56;2.53;;;1.40;;
9142;SDS011;54072;47.410;8.446;2023-03-13T00:21:25;3.17;;;2.10;;
9142;SDS011;54072;47.410;8.446;2023-03-13T00:23:56;1.40;;;1.30;;
9142;SDS011;54072;47.410;8.446;2023-03-13T00:26:25;1.77;;;1.47;;
9142;SDS011;54072;47.410;8.446;2023-03-13T00:28:53;2.80;;;1.60;;
9142;SDS011;54072;47.410;8.446;2023-03-13T00:31:22;3.23;;;1.70;;
9142;SDS011;54072;47.410;8.446;2023-03-13T00:33:51;2.33;;;1.70;;
9142;SDS011;54072;47.410;8.446;2023-03-13T00:36:20;3.00;;;1.43;;
9142;SDS011;54072;47.410;8.446;2023-03-13T00:38:49;1.70;;;1.60;;
9142;SDS011;54072;47.410;8.446;2023-03-13T00:41:19;1.60;;;1.47;;
9142;SDS011;54072;47.410;8.446;2023-03-13T00:43:48;2.37;;;1.50;;
9142;SDS011;54072;47.410;8.446;2023-03-13T00:46:17;2.03;;;1.83;;
9142;SDS011;54072;47.410;8.446;2023-03-13T00:48:46;2.50;;;1.50;;
9142;SDS011;54072;47.410;8.446;2023-03-13T00:51:14;1.80;;;1.70;;
9142;SDS011;54072;47.410;8.446;2023-03-13T00:53:43;2.03;;;1.60;;
9142;SDS011;54072;47.410;8.446;2023-03-13T00:56:12;2.60;;;1.80;;
9142;SDS011;54072;47.410;8.446;2023-03-13T00:58:43;2.20;;;2.00;;
9142;SDS011;54072;47.410;8.446;2023-03-13T01:01:12;2.60;;;2.00;;
9142;SDS011;54072;47.410;8.446;2023-03-13T01:03:41;2.97;;;1.90;;
9142;SDS011;54072;47.410;8.446;2023-03-13T01:06:12;1.97;;;1.60;;
9142;SDS011;54072;47.410;8.446;2023-03-13T01:08:41;2.57;;;2.03;;
9142;SDS011;54072;47.410;8.446;2023-03-13T01:11:09;3.33;;;2.00;;
9142;SDS011;54072;47.410;8.446;2023-03-13T01:13:38;2.23;;;2.07;;
9142;SDS011;54072;47.410;8.446;2023-03-13T01:16:08;2.20;;;2.00;;
9142;SDS011;54072;47.410;8.446;2023-03-13T01:18:38;2.03;;;1.80;;
9142;SDS011;54072;47.410;8.446;2023-03-13T01:21:07;2.00;;;1.87;;
9142;SDS011;54072;47.410;8.446;2023-03-13T01:23:34;2.17;;;1.80;;
9142;SDS011;54072;47.410;8.446;2023-03-13T01:26:03;1.93;;;1.40;;
9142;SDS011;54072;47.410;8.446;2023-03-13T01:28:31;1.83;;;1.50;;
9142;SDS011;54072;47.410;8.446;2023-03-13T01:31:00;1.67;;;1.57;;
9142;SDS011;54072;47.410;8.446;2023-03-13T01:33:29;1.57;;;1.37;;
9142;SDS011;54072;47.410;8.446;2023-03-13T01:35:59;1.37;;;1.27;;
9142;SDS011;54072;47.410;8.446;2023-03-13T01:38:28;1.70;;;1.60;;
9142;SDS011;54072;47.410;8.446;2023-03-13T01:40:56;2.70;;;1.70;;
9142;SDS011;54072;47.410;8.446;2023-03-13T01:43:24;1.50;;;1.40;;
9142;SDS011;54072;47.410;8.446;2023-03-13T01:46:00;1.77;;;1.30;;
9142;SDS011;54072;47.410;8.446;2023-03-13T01:48:36;2.70;;;1.20;;
9142;SDS011;54072;47.410;8.446;2023-03-13T01:51:07;1.70;;;1.60;;
9142;SDS011;54072;47.410;8.446;2023-03-13T01:53:37;2.17;;;1.37;;
9142;SDS011;54072;47.410;8.446;2023-03-13T01:56:10;1.17;;;1.17;;
9142;SDS011;54072;47.410;8.446;2023-03-13T01:58:41;1.80;;;1.60;;
9142;SDS011;54072;47.410;8.446;2023-03-13T02:01:09;2.87;;;2.07;;
9142;SDS011;54072;47.410;8.446;2023-03-13T02:03:39;1.30;;;1.20;;
9142;SDS011;54072;47.410;8.446;2023-03-13T02:06:07;2.83;;;1.63;;
9142;SDS011;54072;47.410;8.446;2023-03-13T02:08:36;1.47;;;1.33;;
9142;SDS011;54072;47.410;8.446;2023-03-13T02:11:07;1.73;;;1.40;;
9142;SDS011;54072;47.410;8.446;2023-03-13T02:13:40;1.67;;;1.57;;
9142;SDS011;54072;47.410;8.446;2023-03-13T02:16:09;3.00;;;1.60;;
9142;SDS011;54072;47.410;8.446;2023-03-13T02:18:38;1.80;;;1.70;;
9142;SDS011;54072;47.410;8.446;2023-03-13T02:21:09;1.67;;;1.57;;
9142;SDS011;54072;47.410;8.446;2023-03-13T02:23:45;1.40;;;1.30;;
9142;SDS011;54072;47.410;8.446;2023-03-13T02:26:18;1.40;;;1.30;;
9142;SDS011;54072;47.410;8.446;2023-03-13T02:28:46;2.17;;;1.20;;
9142;SDS011;54072;47.410;8.446;2023-03-13T02:31:15;1.20;;;1.10;;
9142;SDS011;54072;47.410;8.446;2023-03-13T02:33:43;1.87;;;1.40;;
9142;SDS011;54072;47.410;8.446;2023-03-13T02:36:11;1.33;;;1.23;;
9142;SDS011;54072;47.410;8.446;2023-03-13T02:38:40;1.37;;;1.20;;
9142;SDS011;54072;47.410;8.446;2023-03-13T02:41:10;1.37;;;1.13;;
9142;SDS011;54072;47.410;8.446;2023-03-13T02:43:40;1.10;;;1.00;;
9142;SDS011;54072;47.410;8.446;2023-03-13T02:46:09;1.50;;;1.27;;
9142;SDS011;54072;47.410;8.446;2023-03-13T02:48:38;2.57;;;1.30;;
9142;SDS011;54072;47.410;8.446;2023-03-13T02:51:09;1.40;;;1.30;;
9142;SDS011;54072;47.410;8.446;2023-03-13T02:53:41;2.10;;;1.60;;
9142;SDS011;54072;47.410;8.446;2023-03-13T02:56:10;2.77;;;1.20;;
9142;SDS011;54072;47.410;8.446;2023-03-13T02:58:41;1.53;;;1.17;;
9142;SDS011;54072;47.410;8.446;2023-03-13T03:01:16;1.50;;;1.27;;
9142;SDS011;54072;47.410;8.446;2023-03-13T03:03:44;1.87;;;1.63;;
9142;SDS011;54072;47.410;8.446;2023-03-13T03:06:12;1.43;;;1.33;;
9142;SDS011;54072;47.410;8.446;2023-03-13T03:08:40;3.33;;;1.90;;
9142;SDS011;54072;47.410;8.446;2023-03-13T03:11:09;1.97;;;1.53;;
9142;SDS011;54072;47.410;8.446;2023-03-13T03:13:37;4.47;;;1.70;;
9142;SDS011;54072;47.410;8.446;2023-03-13T03:16:07;1.83;;;1.40;;
9142;SDS011;54072;47.410;8.446;2023-03-13T03:18:36;3.53;;;1.63;;
9142;SDS011;54072;47.410;8.446;2023-03-13T03:21:04;1.60;;;1.50;;
9142;SDS011;54072;47.410;8.446;2023-03-13T03:23:32;1.67;;;1.57;;
9142;SDS011;54072;47.410;8.446;2023-03-13T03:26:00;1.93;;;1.40;;
9142;SDS011;54072;47.410;8.446;2023-03-13T03:28:28;1.30;;;1.20;;
9142;SDS011;54072;47.410;8.446;2023-03-13T03:30:56;2.00;;;1.40;;
9142;SDS011;54072;47.410;8.446;2023-03-13T03:33:25;2.07;;;1.67;;
9142;SDS011;54072;47.410;8.446;2023-03-13T03:35:57;2.40;;;1.73;;
9142;SDS011;54072;47.410;8.446;2023-03-13T03:38:26;4.63;;;3.10;;
9142;SDS011;54072;47.410;8.446;2023-03-13T03:40:53;2.73;;;2.00;;
9142;SDS011;54072;47.410;8.446;2023-03-13T03:43:21;3.10;;;1.90;;
9142;SDS011;54072;47.410;8.446;2023-03-13T03:45:49;2.73;;;1.80;;
9142;SDS011;54072;47.410;8.446;2023-03-13T03:48:17;3.00;;;1.73;;
9142;SDS011;54072;47.410;8.446;2023-03-13T03:50:46;2.93;;;1.73;;
9142;SDS011;54072;47.410;8.446;2023-03-13T03:53:14;1.87;;;1.60;;
9142;SDS011;54072;47.410;8.446;2023-03-13T03:55:41;2.10;;;1.63;;
9142;SDS011;54072;47.410;8.446;2023-03-13T03:58:09;1.80;;;1.57;;
9142;SDS011;54072;47.410;8.446;2023-03-13T04:00:37;1.60;;;1.50;;
9142;SDS011;54072;47.410;8.446;2023-03-13T04:03:05;2.00;;;1.80;;
9142;SDS011;54072;47.410;8.446;2023-03-13T04:05:33;1.83;;;1.60;;
9142;SDS011;54072;47.410;8.446;2023-03-13T04:08:02;4.73;;;2.03;;
9142;SDS011;54072;47.410;8.446;2023-03-13T04:10:30;1.63;;;1.53;;
9142;SDS011;54072;47.410;8.446;2023-03-13T04:12:57;1.97;;;1.50;;
9142;SDS011;54072;47.410;8.446;2023-03-13T04:15:25;1.77;;;1.60;;
9142;SDS011;54072;47.410;8.446;2023-03-13T04:17:53;2.10;;;1.63;;
9142;SDS011;54072;47.410;8.446;2023-03-13T04:20:20;1.73;;;1.53;;
9142;SDS011;54072;47.410;8.446;2023-03-13T04:22:48;2.83;;;1.70;;
9142;SDS011;54072;47.410;8.446;2023-03-13T04:25:18;1.70;;;1.60;;
9142;SDS011;54072;47.410;8.446;2023-03-13T04:27:46;1.70;;;1.60;;
9142;SDS011;54072;47.410;8.446;2023-03-13T04:30:14;2.20;;;1.40;;
9142;SDS011;54072;47.410;8.446;2023-03-13T04:32:43;1.87;;;1.43;;
9142;SDS011;54072;47.410;8.446;2023-03-13T04:35:11;1.50;;;1.20;;
9142;SDS011;54072;47.410;8.446;2023-03-13T04:37:39;1.90;;;1.20;;
9142;SDS011;54072;47.410;8.446;2023-03-13T04:40:07;1.87;;;1.43;;
9142;SDS011;54072;47.410;8.446;2023-03-13T04:42:37;1.90;;;1.40;;
9142;SDS011;54072;47.410;8.446;2023-03-13T04:45:05;2.60;;;1.30;;
9142;SDS011;54072;47.410;8.446;2023-03-13T04:47:35;1.50;;;1.37;;
9142;SDS011;54072;47.410;8.446;2023-03-13T04:50:03;1.57;;;1.40;;
9142;SDS011;54072;47.410;8.446;2023-03-13T04:52:31;1.20;;;1.10;;
9142;SDS011;54072;47.410;8.446;2023-03-13T04:54:59;1.43;;;1.33;;
9142;SDS011;54072;47.410;8.446;2023-03-13T04:57:27;1.27;;;1.03;;
9142;SDS011;54072;47.410;8.446;2023-03-13T04:59:56;0.90;;;0.90;;
9142;SDS011;54072;47.410;8.446;2023-03-13T05:02:24;0.93;;;0.93;;
9142;SDS011;54072;47.410;8.446;2023-03-13T05:04:52;1.10;;;1.00;;
9142;SDS011;54072;47.410;8.446;2023-03-13T05:07:20;1.33;;;1.20;;
9142;SDS011;54072;47.410;8.446;2023-03-13T05:09:48;2.13;;;1.93;;
9142;SDS011;54072;47.410;8.446;2023-03-13T05:12:15;1.40;;;1.30;;
9142;SDS011;54072;47.410;8.446;2023-03-13T05:14:43;2.00;;;1.50;;
9142;SDS011;54072;47.410;8.446;2023-03-13T05:17:12;1.17;;;1.13;;
9142;SDS011;54072;47.410;8.446;2023-03-13T05:19:40;3.03;;;1.23;;
9142;SDS011;54072;47.410;8.446;2023-03-13T05:22:07;1.57;;;1.47;;
9142;SDS011;54072;47.410;8.446;2023-03-13T05:24:35;1.13;;;1.10;;
9142;SDS011;54072;47.410;8.446;2023-03-13T05:27:05;2.13;;;1.40;;
9142;SDS011;54072;47.410;8.446;2023-03-13T05:29:33;1.50;;;1.33;;
9142;SDS011;54072;47.410;8.446;2023-03-13T05:32:01;1.20;;;1.10;;
9142;SDS011;54072;47.410;8.446;2023-03-13T05:34:35;1.40;;;1.20;;
9142;SDS011;54072;47.410;8.446;2023-03-13T05:37:03;1.70;;;1.20;;
9142;SDS011;54072;47.410;8.446;2023-03-13T05:39:31;1.50;;;1.30;;
9142;SDS011;54072;47.410;8.446;2023-03-13T05:41:59;1.93;;;1.20;;
9142;SDS011;54072;47.410;8.446;2023-03-13T05:44:26;2.43;;;1.10;;
9142;SDS011;54072;47.410;8.446;2023-03-13T05:46:54;1.40;;;1.30;;
9142;SDS011;54072;47.410;8.446;2023-03-13T05:49:22;1.30;;;1.20;;
9142;SDS011;54072;47.410;8.446;2023-03-13T05:51:51;2.00;;;1.20;;
9142;SDS011;54072;47.410;8.446;2023-03-13T05:54:19;0.90;;;0.90;;
9142;SDS011;54072;47.410;8.446;2023-03-13T05:56:47;1.10;;;1.00;;
9142;SDS011;54072;47.410;8.446;2023-03-13T05:59:15;1.10;;;1.00;;
9142;SDS011;54072;47.410;8.446;2023-03-13T06:01:43;1.27;;;1.10;;
9142;SDS011;54072;47.410;8.446;2023-03-13T06:04:11;2.17;;;1.03;;
9142;SDS011;54072;47.410;8.446;2023-03-13T06:06:38;1.23;;;1.10;;
9142;SDS011;54072;47.410;8.446;2023-03-13T06:09:08;1.10;;;1.00;;
9142;SDS011;54072;47.410;8.446;2023-03-13T06:11:36;0.90;;;0.90;;
9142;SDS011;54072;47.410;8.446;2023-03-13T06:14:04;1.10;;;1.00;;
9142;SDS011;54072;47.410;8.446;2023-03-13T06:16:32;1.47;;;1.37;;
9142;SDS011;54072;47.410;8.446;2023-03-13T06:19:00;1.07;;;0.87;;
9142;SDS011;54072;47.410;8.446;2023-03-13T06:21:28;2.57;;;1.10;;
9142;SDS011;54072;47.410;8.446;2023-03-13T06:23:56;0.90;;;0.90;;
9142;SDS011;54072;47.410;8.446;2023-03-13T06:26:25;1.27;;;1.17;;
9142;SDS011;54072;47.410;8.446;2023-03-13T06:28:53;1.73;;;1.20;;
9142;SDS011;54072;47.410;8.446;2023-03-13T06:31:20;1.17;;;1.07;;
9142;SDS011;54072;47.410;8.446;2023-03-13T06:33:51;2.07;;;1.30;;
9142;SDS011;54072;47.410;8.446;2023-03-13T06:36:19;1.27;;;1.17;;
9142;SDS011;54072;47.410;8.446;2023-03-13T06:38:47;0.90;;;0.90;;
9142;SDS011;54072;47.410;8.446;2023-03-13T06:41:15;1.07;;;1.03;;
9142;SDS011;54072;47.410;8.446;2023-03-13T06:43:44;1.40;;;1.10;;
9142;SDS011;54072;47.410;8.446;2023-03-13T06:46:14;1.30;;;1.20;;
9142;SDS011;54072;47.410;8.446;2023-03-13T06:48:43;1.20;;;1.10;;
9142;SDS011;54072;47.410;8.446;2023-03-13T06:51:11;2.40;;;1.30;;
9142;SDS011;54072;47.410;8.446;2023-03-13T06:53:39;2.93;;;1.03;;
9142;SDS011;54072;47.410;8.446;2023-03-13T06:56:08;1.30;;;1.20;;
9142;SDS011;54072;47.410;8.446;2023-03-13T06:58:36;3.00;;;1.20;;
9142;SDS011;54072;47.410;8.446;2023-03-13T07:01:08;2.13;;;1.20;;
9142;SDS011;54072;47.410;8.446;2023-03-13T07:03:37;2.20;;;1.30;;
9142;SDS011;54072;47.410;8.446;2023-03-13T07:06:06;2.27;;;1.70;;
9142;SDS011;54072;47.410;8.446;2023-03-13T07:08:35;2.70;;;1.17;;
9142;SDS011;54072;47.410;8.446;2023-03-13T07:11:03;1.00;;;1.00;;
9142;SDS011;54072;47.410;8.446;2023-03-13T07:13:32;1.67;;;1.10;;
9142;SDS011;54072;47.410;8.446;2023-03-13T07:16:00;2.17;;;1.20;;
9142;SDS011;54072;47.410;8.446;2023-03-13T07:18:30;2.13;;;1.00;;
9142;SDS011;54072;47.410;8.446;2023-03-13T07:20:59;0.90;;;0.90;;
9142;SDS011;54072;47.410;8.446;2023-03-13T07:23:31;1.20;;;0.93;;
9142;SDS011;54072;47.410;8.446;2023-03-13T07:26:00;1.20;;;1.10;;
9142;SDS011;54072;47.410;8.446;2023-03-13T07:28:29;1.67;;;1.10;;
9142;SDS011;54072;47.410;8.446;2023-03-13T07:31:04;1.10;;;0.90;;
9142;SDS011;54072;47.410;8.446;2023-03-13T07:33:34;0.97;;;0.97;;
9142;SDS011;54072;47.410;8.446;2023-03-13T07:36:02;1.13;;;1.00;;
9142;SDS011;54072;47.410;8.446;2023-03-13T07:38:30;1.13;;;0.77;;
9142;SDS011;54072;47.410;8.446;2023-03-13T07:40:58;1.30;;;0.90;;
9142;SDS011;54072;47.410;8.446;2023-03-13T07:43:26;1.40;;;1.30;;
9142;SDS011;54072;47.410;8.446;2023-03-13T07:45:55;1.03;;;1.00;;
9142;SDS011;54072;47.410;8.446;2023-03-13T07:48:24;2.43;;;1.30;;
9142;SDS011;54072;47.410;8.446;2023-03-13T07:50:56;0.83;;;0.83;;
9142;SDS011;54072;47.410;8.446;2023-03-13T07:53:24;1.10;;;1.00;;
9142;SDS011;54072;47.410;8.446;2023-03-13T07:55:56;1.17;;;1.03;;
9142;SDS011;54072;47.410;8.446;2023-03-13T07:58:25;2.53;;;1.23;;
9142;SDS011;54072;47.410;8.446;2023-03-13T08:00:54;0.93;;;0.90;;
9142;SDS011;54072;47.410;8.446;2023-03-13T08:03:22;1.83;;;1.13;;
9142;SDS011;54072;47.410;8.446;2023-03-13T08:05:57;3.87;;;1.20;;
9142;SDS011;54072;47.410;8.446;2023-03-13T08:08:26;1.23;;;1.03;;
9142;SDS011;54072;47.410;8.446;2023-03-13T08:10:58;1.10;;;1.00;;
9142;SDS011;54072;47.410;8.446;2023-03-13T08:13:26;1.30;;;0.97;;
9142;SDS011;54072;47.410;8.446;2023-03-13T08:16:01;1.20;;;1.10;;
9142;SDS011;54072;47.410;8.446;2023-03-13T08:18:30;0.90;;;0.90;;
9142;SDS011;54072;47.410;8.446;2023-03-13T08:21:02;0.87;;;0.87;;
9142;SDS011;54072;47.410;8.446;2023-03-13T08:23:31;1.27;;;0.87;;
9142;SDS011;54072;47.410;8.446;2023-03-13T08:26:02;1.30;;;1.13;;
9142;SDS011;54072;47.410;8.446;2023-03-13T08:28:31;1.33;;;1.20;;
9142;SDS011;54072;47.410;8.446;2023-03-13T08:31:05;1.30;;;1.20;;
9142;SDS011;54072;47.410;8.446;2023-03-13T08:33:33;0.93;;;0.93;;
9142;SDS011;54072;47.410;8.446;2023-03-13T08:36:09;1.60;;;1.00;;
9142;SDS011;54072;47.410;8.446;2023-03-13T08:38:37;1.77;;;1.27;;
9142;SDS011;54072;47.410;8.446;2023-03-13T08:41:13;1.20;;;1.00;;
9142;SDS011;54072;47.410;8.446;2023-03-13T08:43:41;0.90;;;0.90;;
9142;SDS011;54072;47.410;8.446;2023-03-13T08:46:09;1.77;;;1.10;;
9142;SDS011;54072;47.410;8.446;2023-03-13T08:48:37;1.43;;;0.90;;
9142;SDS011;54072;47.410;8.446;2023-03-13T08:51:05;0.93;;;0.90;;
9142;SDS011;54072;47.410;8.446;2023-03-13T08:53:36;1.10;;;1.00;;
9142;SDS011;54072;47.410;8.446;2023-03-13T08:56:05;1.70;;;1.27;;
9142;SDS011;54072;47.410;8.446;2023-03-13T08:58:34;1.60;;;1.40;;
9142;SDS011;54072;47.410;8.446;2023-03-13T09:01:02;2.13;;;1.40;;
9142;SDS011;54072;47.410;8.446;2023-03-13T09:03:30;1.07;;;1.03;;
9142;SDS011;54072;47.410;8.446;2023-03-13T09:05:58;1.80;;;1.20;;
9142;SDS011;54072;47.410;8.446;2023-03-13T09:08:28;1.10;;;1.10;;
9142;SDS011;54072;47.410;8.446;2023-03-13T09:10:56;1.30;;;1.20;;
9142;SDS011;54072;47.410;8.446;2023-03-13T09:13:24;1.43;;;1.00;;
9142;SDS011;54072;47.410;8.446;2023-03-13T09:15:53;0.67;;;0.67;;
9142;SDS011;54072;47.410;8.446;2023-03-13T09:18:21;1.40;;;1.10;;
9142;SDS011;54072;47.410;8.446;2023-03-13T09:20:49;1.10;;;1.00;;
9142;SDS011;54072;47.410;8.446;2023-03-13T09:23:17;0.80;;;0.80;;
9142;SDS011;54072;47.410;8.446;2023-03-13T09:25:47;0.70;;;0.70;;
9142;SDS011;54072;47.410;8.446;2023-03-13T09:28:15;2.20;;;0.80;;
9142;SDS011;54072;47.410;8.446;2023-03-13T09:30:42;1.23;;;1.13;;
9142;SDS011;54072;47.410;8.446;2023-03-13T09:33:10;1.30;;;1.00;;
9142;SDS011;54072;47.410;8.446;2023-03-13T09:35:38;0.90;;;0.90;;
9142;SDS011;54072;47.410;8.446;2023-03-13T09:38:06;1.37;;;0.90;;
9142;SDS011;54072;47.410;8.446;2023-03-13T09:40:36;0.80;;;0.80;;
9142;SDS011;54072;47.410;8.446;2023-03-13T09:43:13;0.97;;;0.90;;
9142;SDS011;54072;47.410;8.446;2023-03-13T09:45:46;1.20;;;1.07;;
9142;SDS011;54072;47.410;8.446;2023-03-13T09:48:17;1.13;;;1.07;;
9142;SDS011;54072;47.410;8.446;2023-03-13T09:50:55;1.27;;;1.17;;
9142;SDS011;54072;47.410;8.446;2023-03-13T09:53:30;1.47;;;1.37;;
9142;SDS011;54072;47.410;8.446;2023-03-13T09:56:02;0.90;;;0.90;;
9142;SDS011;54072;47.410;8.446;2023-03-13T09:58:33;1.27;;;1.00;;
9142;SDS011;54072;47.410;8.446;2023-03-13T10:01:02;1.20;;;1.10;;
9142;SDS011;54072;47.410;8.446;2023-03-13T10:03:32;1.27;;;1.07;;
9142;SDS011;54072;47.410;8.446;2023-03-13T10:06:03;1.23;;;1.00;;
9142;SDS011;54072;47.410;8.446;2023-03-13T10:08:33;0.70;;;0.70;;
9142;SDS011;54072;47.410;8.446;2023-03-13T10:11:02;1.38;;;0.82;;
9142;SDS011;54072;47.410;8.446;2023-03-13T10:13:33;1.08;;;1.08;;
9142;SDS011;54072;47.410;8.446;2023-03-13T10:16:04;1.25;;;1.15;;
9142;SDS011;54072;47.410;8.446;2023-03-13T10:18:35;0.90;;;0.90;;
9142;SDS011;54072;47.410;8.446;2023-03-13T10:21:06;3.20;;;2.08;;
9142;SDS011;54072;47.410;8.446;2023-03-13T10:23:42;2.25;;;1.38;;
9142;SDS011;54072;47.410;8.446;2023-03-13T10:26:14;1.55;;;1.05;;
9142;SDS011;54072;47.410;8.446;2023-03-13T10:28:45;1.25;;;0.90;;
9142;SDS011;54072;47.410;8.446;2023-03-13T10:31:13;1.20;;;1.10;;
9142;SDS011;54072;47.410;8.446;2023-03-13T10:33:44;1.03;;;1.00;;
9142;SDS011;54072;47.410;8.446;2023-03-13T10:36:13;0.90;;;0.90;;
9142;SDS011;54072;47.410;8.446;2023-03-13T10:38:45;1.83;;;1.20;;
9142;SDS011;54072;47.410;8.446;2023-03-13T10:41:19;2.27;;;0.90;;
9142;SDS011;54072;47.410;8.446;2023-03-13T10:43:53;1.40;;;1.20;;
9142;SDS011;54072;47.410;8.446;2023-03-13T10:46:25;1.00;;;1.00;;
9142;SDS011;54072;47.410;8.446;2023-03-13T10:48:55;1.27;;;1.20;;
9142;SDS011;54072;47.410;8.446;2023-03-13T10:51:24;1.80;;;1.43;;
9142;SDS011;54072;47.410;8.446;2023-03-13T10:53:58;1.55;;;1.30;;
9142;SDS011;54072;47.410;8.446;2023-03-13T10:56:27;1.75;;;1.23;;
9142;SDS011;54072;47.410;8.446;2023-03-13T10:58:57;1.70;;;1.50;;
9142;SDS011;54072;47.410;8.446;2023-03-13T11:01:26;1.25;;;1.10;;
9142;SDS011;54072;47.410;8.446;2023-03-13T11:03:57;1.13;;;1.13;;
9142;SDS011;54072;47.410;8.446;2023-03-13T11:06:27;1.02;;;1.02;;
9142;SDS011;54072;47.410;8.446;2023-03-13T11:11:43;1.30;;;1.20;;
9142;SDS011;54072;47.410;8.446;2023-03-13T11:14:14;1.38;;;1.27;;
9142;SDS011;54072;47.410;8.446;2023-03-13T11:16:47;2.35;;;1.23;;
9142;SDS011;54072;47.410;8.446;2023-03-13T11:19:19;0.98;;;0.98;;
9142;SDS011;54072;47.410;8.446;2023-03-13T11:21:58;1.67;;;1.40;;
9142;SDS011;54072;47.410;8.446;2023-03-13T11:24:33;1.98;;;1.40;;
9142;SDS011;54072;47.410;8.446;2023-03-13T11:27:07;1.10;;;1.10;;
9142;SDS011;54072;47.410;8.446;2023-03-13T11:29:45;1.45;;;1.33;;
9142;SDS011;54072;47.410;8.446;2023-03-13T11:32:21;1.20;;;1.15;;
9142;SDS011;54072;47.410;8.446;2023-03-13T11:34:53;1.17;;;1.10;;
9142;SDS011;54072;47.410;8.446;2023-03-13T11:37:22;0.98;;;0.98;;
9142;SDS011;54072;47.410;8.446;2023-03-13T11:39:56;1.80;;;1.05;;
9142;SDS011;54072;47.410;8.446;2023-03-13T11:42:34;1.00;;;1.00;;
9142;SDS011;54072;47.410;8.446;2023-03-13T11:45:26;1.58;;;1.48;;
9142;SDS011;54072;47.410;8.446;2023-03-13T11:48:00;0.93;;;0.93;;
9142;SDS011;54072;47.410;8.446;2023-03-13T11:50:34;1.20;;;1.20;;
9142;SDS011;54072;47.410;8.446;2023-03-13T11:53:26;1.20;;;1.10;;
9142;SDS011;54072;47.410;8.446;2023-03-13T11:56:01;1.38;;;1.27;;
9142;SDS011;54072;47.410;8.446;2023-03-13T11:58:37;1.17;;;1.10;;
9142;SDS011;54072;47.410;8.446;2023-03-13T12:01:13;1.10;;;1.10;;
9142;SDS011;54072;47.410;8.446;2023-03-13T12:03:43;1.40;;;1.00;;
9142;SDS011;54072;47.410;8.446;2023-03-13T12:06:22;3.17;;;1.25;;
9142;SDS011;54072;47.410;8.446;2023-03-13T12:08:54;1.05;;;0.95;;
9142;SDS011;54072;47.410;8.446;2023-03-13T12:11:25;1.20;;;1.20;;
9142;SDS011;54072;47.410;8.446;2023-03-13T12:13:56;1.55;;;1.30;;
9142;SDS011;54072;47.410;8.446;2023-03-13T12:16:32;1.10;;;1.10;;
9142;SDS011;54072;47.410;8.446;2023-03-13T12:19:07;1.30;;;1.20;;
9142;SDS011;54072;47.410;8.446;2023-03-13T12:21:37;0.73;;;0.73;;
9142;SDS011;54072;47.410;8.446;2023-03-13T12:24:10;1.42;;;1.00;;
9142;SDS011;54072;47.410;8.446;2023-03-13T12:26:41;1.00;;;0.90;;
9142;SDS011;54072;47.410;8.446;2023-03-13T12:29:13;1.65;;;1.20;;
9142;SDS011;54072;47.410;8.446;2023-03-13T12:31:46;0.93;;;0.93;;
9142;SDS011;54072;47.410;8.446;2023-03-13T12:34:17;1.60;;;1.10;;
9142;SDS011;54072;47.410;8.446;2023-03-13T12:36:49;1.40;;;0.90;;
9142;SDS011;54072;47.410;8.446;2023-03-13T12:39:21;1.05;;;0.88;;
9142;SDS011;54072;47.410;8.446;2023-03-13T12:42:07;1.10;;;1.10;;
9142;SDS011;54072;47.410;8.446;2023-03-13T12:44:40;1.80;;;1.10;;
9142;SDS011;54072;47.410;8.446;2023-03-13T12:47:13;1.10;;;1.10;;
9142;SDS011;54072;47.410;8.446;2023-03-13T12:52:41;1.08;;;1.08;;
9142;SDS011;54072;47.410;8.446;2023-03-13T12:55:22;1.10;;;1.10;;
9142;SDS011;54072;47.410;8.446;2023-03-13T13:00:52;1.00;;;1.00;;
9142;SDS011;54072;47.410;8.446;2023-03-13T13:03:25;1.52;;;1.20;;
9142;SDS011;54072;47.410;8.446;2023-03-13T13:05:59;1.02;;;1.00;;
9142;SDS011;54072;47.410;8.446;2023-03-13T13:08:31;2.90;;;1.20;;
9142;SDS011;54072;47.410;8.446;2023-03-13T13:17:21;1.00;;;1.00;;
9142;SDS011;54072;47.410;8.446;2023-03-13T13:19:53;1.20;;;1.20;;
9142;SDS011;54072;47.410;8.446;2023-03-13T13:25:31;1.20;;;1.13;;
9142;SDS011;54072;47.410;8.446;2023-03-13T13:30:55;0.90;;;0.90;;
9142;SDS011;54072;47.410;8.446;2023-03-13T13:33:36;1.20;;;1.10;;
9142;SDS011;54072;47.410;8.446;2023-03-13T13:39:20;1.17;;;1.17;;
9142;SDS011;54072;47.410;8.446;2023-03-13T13:41:56;1.00;;;1.00;;
9142;SDS011;54072;47.410;8.446;2023-03-13T13:44:25;2.17;;;1.13;;
9142;SDS011;54072;47.410;8.446;2023-03-13T13:46:55;2.10;;;1.00;;
9142;SDS011;54072;47.410;8.446;2023-03-13T13:49:26;1.00;;;1.00;;
9142;SDS011;54072;47.410;8.446;2023-03-13T13:52:17;2.78;;;1.20;;
9142;SDS011;54072;47.410;8.446;2023-03-13T13:54:58;1.35;;;1.10;;
9142;SDS011;54072;47.410;8.446;2023-03-13T13:57:26;1.10;;;1.00;;
9142;SDS011;54072;47.410;8.446;2023-03-13T13:59:58;0.95;;;0.95;;
9142;SDS011;54072;47.410;8.446;2023-03-13T14:02:33;2.28;;;1.25;;
9142;SDS011;54072;47.410;8.446;2023-03-13T14:05:03;1.13;;;1.00;;
9142;SDS011;54072;47.410;8.446;2023-03-13T14:10:29;1.27;;;1.08;;
9142;SDS011;54072;47.410;8.446;2023-03-13T14:13:00;1.58;;;1.00;;
9142;SDS011;54072;47.410;8.446;2023-03-13T14:15:30;1.08;;;1.08;;
9142;SDS011;54072;47.410;8.446;2023-03-13T14:18:01;2.45;;;1.15;;
9142;SDS011;54072;47.410;8.446;2023-03-13T14:20:37;3.03;;;1.25;;
9142;SDS011;54072;47.410;8.446;2023-03-13T14:23:07;1.15;;;1.05;;
9142;SDS011;54072;47.410;8.446;2023-03-13T14:25:40;1.52;;;1.00;;
9142;SDS011;54072;47.410;8.446;2023-03-13T14:28:16;2.17;;;1.30;;
9142;SDS011;54072;47.410;8.446;2023-03-13T14:30:46;0.80;;;0.80;;
9142;SDS011;54072;47.410;8.446;2023-03-13T14:33:15;1.45;;;1.35;;
9142;SDS011;54072;47.410;8.446;2023-03-13T14:35:42;1.27;;;1.17;;
9142;SDS011;54072;47.410;8.446;2023-03-13T14:38:16;1.05;;;1.05;;
9142;SDS011;54072;47.410;8.446;2023-03-13T14:40:45;0.98;;;0.98;;
9142;SDS011;54072;47.410;8.446;2023-03-13T14:43:16;1.30;;;1.23;;
9142;SDS011;54072;47.410;8.446;2023-03-13T14:45:46;1.15;;;1.10;;
9142;SDS011;54072;47.410;8.446;2023-03-13T14:48:18;1.85;;;1.20;;
9142;SDS011;54072;47.410;8.446;2023-03-13T14:50:48;1.30;;;1.20;;
9142;SDS011;54072;47.410;8.446;2023-03-13T14:53:21;1.33;;;1.23;;
9142;SDS011;54072;47.410;8.446;2023-03-13T14:56:07;1.45;;;1.30;;
9142;SDS011;54072;47.410;8.446;2023-03-13T14:58:36;1.13;;;1.08;;
9142;SDS011;54072;47.410;8.446;2023-03-13T15:01:19;1.45;;;1.27;;
9142;SDS011;54072;47.410;8.446;2023-03-13T15:03:50;1.42;;;1.20;;
9142;SDS011;54072;47.410;8.446;2023-03-13T15:06:19;1.17;;;1.17;;
9142;SDS011;54072;47.410;8.446;2023-03-13T15:11:51;1.13;;;1.10;;
9142;SDS011;54072;47.410;8.446;2023-03-13T15:14:31;2.38;;;1.90;;
9142;SDS011;54072;47.410;8.446;2023-03-13T15:17:09;2.03;;;1.70;;
9142;SDS011;54072;47.410;8.446;2023-03-13T15:19:39;1.48;;;1.38;;
9142;SDS011;54072;47.410;8.446;2023-03-13T15:22:10;2.00;;;1.13;;
9142;SDS011;54072;47.410;8.446;2023-03-13T15:24:41;1.10;;;1.08;;
9142;SDS011;54072;47.410;8.446;2023-03-13T15:27:14;1.63;;;1.40;;
9142;SDS011;54072;47.410;8.446;2023-03-13T15:29:42;1.40;;;1.30;;
9142;SDS011;54072;47.410;8.446;2023-03-13T15:32:14;2.40;;;1.20;;
9142;SDS011;54072;47.410;8.446;2023-03-13T15:34:45;1.30;;;1.13;;
9142;SDS011;54072;47.410;8.446;2023-03-13T15:37:13;1.92;;;1.20;;
9142;SDS011;54072;47.410;8.446;2023-03-13T15:39:42;1.48;;;1.15;;
9142;SDS011;54072;47.410;8.446;2023-03-13T15:42:10;1.60;;;1.50;;
9142;SDS011;54072;47.410;8.446;2023-03-13T15:44:37;2.05;;;1.33;;
9142;SDS011;54072;47.410;8.446;2023-03-13T15:47:08;1.73;;;1.42;;
9142;SDS011;54072;47.410;8.446;2023-03-13T15:49:36;1.35;;;1.27;;